createdAt,value
2018-09-18T00:02:23.163Z,17.50
2018-09-18T00:04:54.462Z,17.50
2018-09-18T00:07:27.203Z,17.50
2018-09-18T00:10:02.964Z,17.40
2018-09-18T00:12:33.762Z,17.30
2018-09-18T00:15:06.626Z,17.30
2018-09-18T00:17:37.064Z,17.20
2018-09-18T00:20:07.464Z,17.20
2018-09-18T00:22:37.922Z,17.10
2018-09-18T00:25:09.563Z,17.10
2018-09-18T00:27:40.005Z,17.00
2018-09-18T00:30:11.585Z,17.00
2018-09-18T00:32:43.418Z,17.00
2018-09-18T00:35:21.445Z,17.00
2018-09-18T00:37:52.568Z,17.10
2018-09-18T00:40:23.558Z,17.00
2018-09-18T00:42:53.981Z,17.00
2018-09-18T00:45:25.758Z,17.00
2018-09-18T00:47:57.258Z,17.00
2018-09-18T00:50:28.398Z,16.90
2018-09-18T00:52:59.458Z,16.90
2018-09-18T00:55:30.118Z,16.90
2018-09-18T00:58:02.078Z,16.90
2018-09-18T01:00:33.738Z,16.90
2018-09-18T01:03:05.338Z,16.80
2018-09-18T01:05:37.198Z,16.80
2018-09-18T01:08:14.238Z,16.80
2018-09-18T01:10:44.906Z,16.80
2018-09-18T01:13:16.580Z,16.80
2018-09-18T01:15:48.398Z,16.70
2018-09-18T01:18:19.991Z,16.70
2018-09-18T01:20:50.698Z,16.70
2018-09-18T01:26:15.761Z,16.70
2018-09-18T01:28:45.917Z,16.70
2018-09-18T01:31:16.537Z,16.70
2018-09-18T01:33:51.200Z,16.60
2018-09-18T01:36:22.057Z,16.60
2018-09-18T01:38:58.737Z,16.50
2018-09-18T01:41:29.277Z,16.50
2018-09-18T01:44:00.758Z,16.40
2018-09-18T01:46:31.797Z,16.30
2018-09-18T01:49:03.381Z,16.20
2018-09-18T01:51:33.898Z,16.20
2018-09-18T01:54:04.084Z,16.20
2018-09-18T01:56:36.039Z,16.10
2018-09-18T01:59:09.218Z,16.10
2018-09-18T02:01:39.278Z,15.90
2018-09-18T02:04:09.777Z,15.80
2018-09-18T02:06:40.280Z,15.70
2018-09-18T02:09:10.922Z,15.70
2018-09-18T02:11:41.600Z,15.60
2018-09-18T02:14:11.999Z,15.60
2018-09-18T02:16:42.400Z,15.60
2018-09-18T02:19:12.759Z,15.60
2018-09-18T02:21:45.519Z,15.60
2018-09-18T02:24:17.379Z,15.70
2018-09-18T02:26:47.760Z,15.70
2018-09-18T02:29:19.099Z,15.70
2018-09-18T02:31:50.419Z,15.70
2018-09-18T02:34:22.561Z,15.70
2018-09-18T02:36:54.239Z,15.70
2018-09-18T02:39:24.939Z,15.70
2018-09-18T02:41:56.039Z,15.80
2018-09-18T02:44:26.758Z,15.70
2018-09-18T02:46:58.058Z,15.80
2018-09-18T02:49:28.838Z,15.70
2018-09-18T02:51:59.778Z,15.60
2018-09-18T02:54:30.858Z,15.50
2018-09-18T02:57:01.619Z,15.50
2018-09-18T02:59:33.359Z,15.30
2018-09-18T03:02:07.920Z,15.30
2018-09-18T03:04:38.561Z,15.20
2018-09-18T03:07:09.261Z,15.20
2018-09-18T03:09:39.601Z,15.20
2018-09-18T03:12:15.581Z,15.20
2018-09-18T03:14:46.681Z,15.20
2018-09-18T03:17:17.938Z,15.20
2018-09-18T03:19:49.618Z,15.20
2018-09-18T03:22:22.559Z,15.20
2018-09-18T03:24:52.918Z,15.20
2018-09-18T03:27:23.674Z,15.30
2018-09-18T03:29:54.718Z,15.30
2018-09-18T03:32:26.661Z,15.40
2018-09-18T03:34:58.338Z,15.50
2018-09-18T03:37:28.819Z,15.40
2018-09-18T03:39:59.518Z,15.40
2018-09-18T03:42:30.239Z,15.40
2018-09-18T03:45:01.663Z,15.40
2018-09-18T03:47:32.618Z,15.50
2018-09-18T03:50:03.039Z,15.50
2018-09-18T03:52:34.039Z,15.50
2018-09-18T03:55:04.805Z,15.50
2018-09-18T03:57:35.622Z,15.40
2018-09-18T04:00:06.218Z,15.40
2018-09-18T04:02:36.863Z,15.40
2018-09-18T04:05:20.544Z,15.40
2018-09-18T04:07:51.204Z,15.50
2018-09-18T04:10:21.929Z,15.50
2018-09-18T04:12:52.989Z,15.40
2018-09-18T04:15:23.583Z,15.40
2018-09-18T04:17:55.184Z,15.40
2018-09-18T04:20:27.884Z,15.30
2018-09-18T04:22:59.678Z,15.20
2018-09-18T04:25:31.659Z,15.20
2018-09-18T04:28:04.079Z,15.10
2018-09-18T04:30:35.298Z,15.00
2018-09-18T04:33:07.258Z,15.00
2018-09-18T04:35:38.618Z,15.00
2018-09-18T04:38:10.778Z,15.00
2018-09-18T04:40:41.758Z,15.00
2018-09-18T04:43:13.024Z,15.00
2018-09-18T04:45:43.462Z,15.00
2018-09-18T04:48:14.059Z,15.00
2018-09-18T04:50:45.598Z,15.00
2018-09-18T04:53:17.430Z,15.00
2018-09-18T04:55:49.000Z,15.00
2018-09-18T04:58:21.600Z,15.00
2018-09-18T05:00:52.880Z,15.00
2018-09-18T05:03:23.459Z,15.00
2018-09-18T05:05:55.020Z,15.10
2018-09-18T05:08:25.419Z,15.20
2018-09-18T05:10:56.139Z,15.40
2018-09-18T05:13:27.920Z,15.60
2018-09-18T05:15:58.220Z,15.90
2018-09-18T05:21:00.279Z,16.50
2018-09-18T05:23:31.939Z,16.70
2018-09-18T05:26:02.379Z,16.90
2018-09-18T05:28:47.899Z,17.00
2018-09-18T05:31:18.439Z,17.20
2018-09-18T05:33:49.109Z,17.70
2018-09-18T05:36:19.259Z,18.20
2018-09-18T05:38:50.439Z,18.60
2018-09-18T05:41:31.239Z,19.00
2018-09-18T05:44:06.759Z,19.60
2018-09-18T05:46:41.501Z,20.30
2018-09-18T05:49:13.122Z,20.80
2018-09-18T05:51:45.860Z,21.00
2018-09-18T05:54:17.024Z,21.20
2018-09-18T05:56:48.460Z,21.80
2018-09-18T05:59:21.560Z,22.60
2018-09-18T06:01:53.123Z,23.20
2018-09-18T06:04:24.483Z,23.90
2018-09-18T06:06:58.194Z,24.70
2018-09-18T06:09:29.443Z,25.40
2018-09-18T06:12:02.763Z,26.00
2018-09-18T06:14:33.864Z,26.60
2018-09-18T06:17:04.283Z,27.10
2018-09-18T06:19:35.824Z,27.50
2018-09-18T06:22:06.240Z,28.00
2018-09-18T06:24:40.447Z,28.60
2018-09-18T06:27:11.181Z,29.00
2018-09-18T06:29:41.909Z,29.40
2018-09-18T06:32:12.641Z,29.80
2018-09-18T06:34:43.814Z,30.30
2018-09-18T06:37:15.482Z,30.70
2018-09-18T06:39:46.685Z,31.00
2018-09-18T06:42:17.308Z,31.40
2018-09-18T06:44:48.419Z,31.80
2018-09-18T06:47:19.475Z,32.00
2018-09-18T06:49:50.096Z,32.20
2018-09-18T06:52:21.778Z,32.70
2018-09-18T06:54:55.838Z,33.00
2018-09-18T06:57:26.186Z,33.40
2018-09-18T06:59:56.986Z,33.40
2018-09-18T07:02:27.319Z,33.70
2018-09-18T07:04:57.763Z,34.00
2018-09-18T07:07:29.067Z,33.80
2018-09-18T07:10:01.746Z,33.90
2018-09-18T07:12:36.083Z,34.10
2018-09-18T07:15:05.791Z,34.30
2018-09-18T07:17:38.709Z,34.10
2018-09-18T07:20:08.349Z,34.00
2018-09-18T07:22:37.907Z,34.10
2018-09-18T07:25:08.846Z,34.00
2018-09-18T07:27:38.338Z,34.00
2018-09-18T07:30:14.878Z,33.00
2018-09-18T07:32:44.699Z,32.90
2018-09-18T07:35:20.110Z,32.90
2018-09-18T07:37:50.457Z,32.80
2018-09-18T07:40:27.599Z,32.70
2018-09-18T07:43:02.118Z,32.20
2018-09-18T07:45:32.398Z,32.10
2018-09-18T07:48:02.638Z,31.50
2018-09-18T07:50:32.658Z,31.10
2018-09-18T07:55:41.120Z,31.50
2018-09-18T07:58:11.038Z,31.00
2018-09-18T08:00:41.551Z,28.70
2018-09-18T08:03:11.853Z,28.10
2018-09-18T08:05:42.544Z,27.20
2018-09-18T08:08:13.884Z,26.20
2018-09-18T08:10:45.631Z,25.50
2018-09-18T08:13:16.561Z,24.90
2018-09-18T08:15:46.389Z,24.50
2018-09-18T08:18:17.121Z,24.20
2018-09-18T08:20:46.823Z,24.00
2018-09-18T08:23:22.519Z,23.80
2018-09-18T08:25:53.099Z,23.70
2018-09-18T08:28:24.799Z,23.50
2018-09-18T08:30:56.141Z,23.40
2018-09-18T08:33:27.620Z,23.40
2018-09-18T08:36:02.378Z,23.40
2018-09-18T08:41:08.559Z,23.20
2018-09-18T08:43:39.460Z,23.20
2018-09-18T08:46:10.204Z,23.20
2018-09-18T08:48:54.032Z,23.20
2018-09-18T08:51:24.705Z,23.10
2018-09-18T08:53:55.788Z,23.20
2018-09-18T08:56:26.540Z,23.30
2018-09-18T08:58:57.199Z,23.40
2018-09-18T09:01:27.484Z,23.60
2018-09-18T09:03:57.668Z,23.80
2018-09-18T09:06:31.410Z,23.80
2018-09-18T09:09:03.560Z,23.80
2018-09-18T09:11:34.100Z,23.80
2018-09-18T09:14:05.772Z,23.80
2018-09-18T09:16:38.119Z,23.70
2018-09-18T09:21:43.689Z,23.90
2018-09-18T09:24:13.966Z,24.00
2018-09-18T09:44:03.701Z,23.70
2018-09-18T09:46:33.919Z,23.50
2018-09-18T09:49:04.319Z,23.60
2018-09-18T09:51:42.287Z,23.60
2018-09-18T09:54:13.339Z,23.40
2018-09-18T09:56:43.726Z,23.60
2018-09-18T09:59:15.359Z,23.20
2018-09-18T10:01:56.360Z,22.80
2018-09-18T10:04:26.459Z,22.60
2018-09-18T10:06:56.778Z,22.50
2018-09-18T10:09:28.160Z,22.50
2018-09-18T10:11:58.640Z,22.30
2018-09-18T10:14:31.200Z,22.40
2018-09-18T10:17:01.600Z,22.60
2018-09-18T10:19:31.359Z,22.70
2018-09-18T10:22:05.208Z,23.00
2018-09-18T10:24:35.426Z,22.90
2018-09-18T10:27:05.265Z,22.90
2018-09-18T10:29:36.185Z,23.10
2018-09-18T10:32:06.619Z,23.30
2018-09-18T10:34:36.626Z,23.20
2018-09-18T10:37:12.699Z,23.30
2018-09-18T10:39:42.584Z,23.40
2018-09-18T10:42:12.554Z,23.50
2018-09-18T10:44:42.878Z,23.60
2018-09-18T10:47:13.163Z,23.60
2018-09-18T10:49:44.587Z,23.20
2018-09-18T10:52:14.539Z,23.30
2018-09-18T10:54:44.419Z,23.40
2018-09-18T10:57:14.718Z,23.30
2018-09-18T10:59:44.821Z,23.40
2018-09-18T11:02:15.570Z,23.60
2018-09-18T11:04:45.704Z,23.70
2018-09-18T11:07:16.125Z,23.40
2018-09-18T11:09:46.385Z,23.30
2018-09-18T11:12:20.344Z,23.40
2018-09-18T11:14:50.286Z,23.50
2018-09-18T11:17:22.099Z,23.60
2018-09-18T11:19:53.281Z,23.80
2018-09-18T11:22:23.303Z,23.80
2018-09-18T11:24:53.307Z,23.80
2018-09-18T11:27:23.720Z,23.90
2018-09-18T11:29:53.637Z,24.00
2018-09-18T11:32:23.439Z,24.00
2018-09-18T11:34:54.001Z,24.10
2018-09-18T11:37:24.055Z,24.20
2018-09-18T11:40:01.580Z,23.90
2018-09-18T11:42:31.941Z,23.70
2018-09-18T11:45:01.689Z,23.80
2018-09-18T11:47:31.650Z,23.70
2018-09-18T11:50:08.340Z,23.80
2018-09-18T11:52:38.272Z,24.00
2018-09-18T11:55:14.320Z,24.10
2018-09-18T11:57:44.371Z,24.30
2018-09-18T12:00:19.294Z,24.40
2018-09-18T12:02:49.413Z,24.50
2018-09-18T12:05:21.301Z,24.50
2018-09-18T12:07:51.299Z,24.60
2018-09-18T12:10:21.180Z,24.10
2018-09-18T12:12:52.880Z,23.90
2018-09-18T12:15:23.160Z,23.90
2018-09-18T12:18:06.500Z,24.10
2018-09-18T12:20:36.879Z,24.20
2018-09-18T12:23:06.699Z,24.00
2018-09-18T12:25:37.120Z,24.10
2018-09-18T12:28:06.961Z,24.40
2018-09-18T12:30:37.579Z,24.60
2018-09-18T12:33:08.479Z,24.60
2018-09-18T12:35:38.645Z,24.60
2018-09-18T12:38:08.780Z,24.60
2018-09-18T12:40:38.879Z,24.40
2018-09-18T12:43:08.623Z,24.20
2018-09-18T12:45:38.619Z,23.90
2018-09-18T12:48:10.674Z,23.80
2018-09-18T12:50:40.822Z,23.80
2018-09-18T12:53:10.899Z,23.70
2018-09-18T12:55:40.939Z,23.90
2018-09-18T12:58:11.118Z,24.00
2018-09-18T13:00:41.449Z,24.20
2018-09-18T13:03:25.278Z,24.40
2018-09-18T13:05:55.081Z,24.50
2018-09-18T13:08:25.721Z,24.50
2018-09-18T13:10:56.420Z,24.40
2018-09-18T13:13:32.155Z,24.40
2018-09-18T13:16:01.967Z,24.40
2018-09-18T13:18:31.845Z,24.20
2018-09-18T13:21:05.868Z,24.10
2018-09-18T13:23:37.002Z,24.10
2018-09-18T13:26:07.628Z,24.30
2018-09-18T13:28:39.360Z,24.30
2018-09-18T13:31:09.281Z,24.30
2018-09-18T13:33:39.355Z,24.30
2018-09-18T13:36:14.001Z,24.40
2018-09-18T13:38:44.219Z,24.40
2018-09-18T13:41:18.427Z,24.50
2018-09-18T13:43:50.460Z,24.50
2018-09-18T13:46:20.781Z,24.50
2018-09-18T13:48:50.696Z,24.60
2018-09-18T13:51:20.844Z,24.40
2018-09-18T13:53:58.904Z,24.30
2018-09-18T13:56:28.803Z,24.00
2018-09-18T13:59:02.049Z,24.00
2018-09-18T14:01:32.957Z,24.10
2018-09-18T14:04:03.363Z,24.20
2018-09-18T14:06:41.774Z,24.30
2018-09-18T14:09:12.200Z,24.20
2018-09-18T14:11:42.240Z,23.90
2018-09-18T14:14:12.696Z,23.70
2018-09-18T14:16:42.659Z,23.70
2018-09-18T14:22:16.160Z,24.00
2018-09-18T14:24:56.800Z,24.10
2018-09-18T14:27:26.890Z,24.20
2018-09-18T14:29:59.441Z,24.10
2018-09-18T14:32:29.220Z,24.00
2018-09-18T14:35:00.220Z,23.80
2018-09-18T14:37:30.712Z,23.70
2018-09-18T14:40:00.824Z,23.70
2018-09-18T14:42:34.875Z,23.60
2018-09-18T14:45:05.327Z,23.50
2018-09-18T14:47:35.542Z,23.60
2018-09-18T14:50:05.952Z,23.60
2018-09-18T14:55:17.620Z,23.80
2018-09-18T14:57:47.982Z,23.90
2018-09-18T15:00:17.992Z,24.00
2018-09-18T15:02:53.600Z,23.90
2018-09-18T15:05:25.280Z,23.80
2018-09-18T15:07:55.546Z,23.70
2018-09-18T15:10:27.279Z,23.60
2018-09-18T15:12:58.319Z,23.50
2018-09-18T15:15:28.185Z,23.50
2018-09-18T15:17:58.540Z,23.40
2018-09-18T15:20:28.959Z,23.40
2018-09-18T15:22:59.301Z,23.30
2018-09-18T15:25:30.056Z,23.30
2018-09-18T15:28:01.811Z,23.30
2018-09-18T15:30:34.284Z,23.20
2018-09-18T15:33:04.733Z,23.20
2018-09-18T15:35:40.883Z,23.20
2018-09-18T15:38:13.745Z,23.10
2018-09-18T15:40:45.287Z,23.10
2018-09-18T15:43:17.581Z,23.10
2018-09-18T15:45:48.071Z,23.00
2018-09-18T15:48:27.525Z,22.90
2018-09-18T15:50:59.124Z,22.90
2018-09-18T15:53:32.214Z,22.90
2018-09-18T15:56:03.023Z,22.80
2018-09-18T15:58:45.263Z,22.80
2018-09-18T16:01:16.637Z,22.70
2018-09-18T16:03:48.063Z,22.60
2018-09-18T16:06:19.451Z,22.50
2018-09-18T16:08:50.802Z,22.50
2018-09-18T16:11:23.984Z,22.40
2018-09-18T16:13:54.339Z,22.50
2018-09-18T16:16:25.578Z,22.40
2018-09-18T16:18:56.921Z,22.40
2018-09-18T16:21:28.424Z,22.40
2018-09-18T16:23:58.923Z,22.30
2018-09-18T16:26:29.344Z,22.20
2018-09-18T16:28:59.503Z,22.10
2018-09-18T16:34:11.303Z,22.10
2018-09-18T16:36:41.783Z,22.00
2018-09-18T16:39:12.564Z,22.00
2018-09-18T16:41:42.590Z,22.00
2018-09-18T16:44:18.751Z,21.90
2018-09-18T16:46:48.469Z,21.80
2018-09-18T16:49:19.582Z,21.70
2018-09-18T16:51:49.839Z,21.50
2018-09-18T16:54:20.390Z,21.50
2018-09-18T16:56:50.237Z,21.50
2018-09-18T16:59:21.141Z,21.50
2018-09-18T17:01:51.099Z,21.50
2018-09-18T17:06:59.999Z,21.50
2018-09-18T17:09:30.020Z,21.50
2018-09-18T17:12:00.163Z,21.50
2018-09-18T17:14:31.823Z,21.60
2018-09-18T17:17:02.001Z,21.60
2018-09-18T17:19:32.108Z,21.50
2018-09-18T17:22:03.741Z,21.40
2018-09-18T17:24:33.753Z,21.30
2018-09-18T17:27:07.548Z,21.30
2018-09-18T17:29:37.620Z,21.40
2018-09-18T17:32:07.646Z,21.30
2018-09-18T17:34:37.969Z,21.10
2018-09-18T17:37:09.016Z,21.10
2018-09-18T17:39:41.923Z,21.10
2018-09-18T17:42:12.405Z,21.10
2018-09-18T17:44:44.348Z,21.10
2018-09-18T17:47:14.387Z,21.10
2018-09-18T17:49:45.593Z,21.10
2018-09-18T17:52:22.908Z,21.10
2018-09-18T17:54:54.608Z,21.10
2018-09-18T17:57:26.589Z,21.20
2018-09-18T17:59:59.511Z,21.20
2018-09-18T18:02:29.545Z,21.20
2018-09-18T18:04:59.605Z,21.30
2018-09-18T18:07:29.827Z,21.20
2018-09-18T18:10:00.121Z,21.20
2018-09-18T18:12:34.043Z,21.20
2018-09-18T18:15:05.382Z,21.20
2018-09-18T18:17:36.911Z,21.20
2018-09-18T18:20:10.673Z,21.20
2018-09-18T18:22:44.172Z,21.20
2018-09-18T18:25:15.482Z,21.30
2018-09-18T18:27:46.642Z,21.30
2018-09-18T18:30:18.345Z,21.30
2018-09-18T18:32:49.240Z,21.30
2018-09-18T18:40:32.604Z,21.20
2018-09-18T18:43:02.923Z,21.20
2018-09-18T18:45:34.685Z,21.20
2018-09-18T18:48:05.755Z,21.10
2018-09-18T18:53:10.234Z,21.00
2018-09-18T18:55:40.635Z,20.90
2018-09-18T18:58:11.945Z,20.90
2018-09-18T19:00:46.206Z,20.90
2018-09-18T19:03:16.504Z,20.80
2018-09-18T19:05:46.461Z,20.80
2018-09-18T19:08:19.689Z,20.90
2018-09-18T19:10:51.079Z,20.80
2018-09-18T19:13:23.959Z,20.80
2018-09-18T19:15:56.487Z,20.70
2018-09-18T19:18:26.841Z,20.70
2018-09-18T19:20:57.741Z,20.50
2018-09-18T19:23:27.878Z,20.40
2018-09-18T19:25:58.370Z,20.40
2018-09-18T19:28:30.372Z,20.40
2018-09-18T19:31:02.665Z,20.40
2018-09-18T19:33:33.360Z,20.40
2018-09-18T19:36:05.420Z,20.30
2018-09-18T19:38:47.269Z,20.40
2018-09-18T19:41:20.566Z,20.30
2018-09-18T19:43:53.511Z,20.30
2018-09-18T19:46:24.342Z,20.20
2018-09-18T19:48:56.323Z,20.10
2018-09-18T19:51:27.406Z,20.10
2018-09-18T19:53:59.192Z,20.10
2018-09-18T19:56:31.303Z,20.00
2018-09-18T19:59:02.884Z,20.00
2018-09-18T20:01:35.234Z,19.90
2018-09-18T20:04:05.276Z,19.80
2018-09-18T20:06:36.159Z,19.70
2018-09-18T20:09:10.149Z,19.60
2018-09-18T20:14:14.225Z,19.60
2018-09-18T20:19:19.883Z,19.60
2018-09-18T20:24:24.745Z,19.50
2018-09-18T20:26:58.728Z,19.50
2018-09-18T20:29:29.619Z,19.50
2018-09-18T20:32:00.385Z,19.50
2018-09-18T20:34:33.324Z,19.40
2018-09-18T20:37:06.462Z,19.30
2018-09-18T20:39:38.244Z,19.30
2018-09-18T20:42:09.901Z,19.20
2018-09-18T20:44:41.022Z,19.20
2018-09-18T20:47:12.221Z,19.20
2018-09-18T20:49:43.887Z,19.10
2018-09-18T20:52:15.281Z,19.20
2018-09-18T20:54:49.130Z,19.20
2018-09-18T20:57:20.345Z,19.10
2018-09-18T21:02:35.384Z,19.10
2018-09-18T21:05:05.787Z,19.00
2018-09-18T21:07:36.824Z,19.00
2018-09-18T21:10:09.442Z,18.90
2018-09-18T21:12:41.724Z,18.80
2018-09-18T21:15:12.504Z,18.80
2018-09-18T21:17:49.379Z,18.80
2018-09-18T21:20:20.646Z,18.90
2018-09-18T21:22:51.487Z,18.80
2018-09-18T21:25:29.744Z,18.80
2018-09-18T21:28:00.646Z,18.80
2018-09-18T21:30:32.125Z,18.80
2018-09-18T21:33:05.309Z,18.80
2018-09-18T21:35:39.295Z,18.70
2018-09-18T21:38:12.004Z,18.60
2018-09-18T21:40:43.522Z,18.60
2018-09-18T21:43:13.922Z,18.50
2018-09-18T21:45:53.220Z,18.40
2018-09-18T21:48:24.484Z,18.30
2018-09-18T21:50:56.805Z,18.20
2018-09-18T21:53:29.201Z,18.10
2018-09-18T21:56:03.400Z,18.10
2018-09-18T21:58:44.721Z,18.00
2018-09-18T22:01:15.735Z,17.90
2018-09-18T22:03:49.353Z,17.90
2018-09-18T22:06:20.661Z,17.90
2018-09-18T22:08:52.648Z,17.90
2018-09-18T22:11:30.083Z,17.90
2018-09-18T22:14:02.457Z,17.90
2018-09-18T22:16:32.882Z,17.90
2018-09-18T22:19:03.942Z,17.90
2018-09-18T22:21:35.261Z,17.90
2018-09-18T22:24:08.803Z,17.80
2018-09-18T22:26:38.784Z,17.80
2018-09-18T22:29:09.067Z,17.70
2018-09-18T22:31:40.646Z,17.60
2018-09-18T22:34:11.733Z,17.60
2018-09-18T22:36:43.291Z,17.60
2018-09-18T22:39:15.042Z,17.50
2018-09-18T22:41:45.714Z,17.50
2018-09-18T22:44:17.523Z,17.40
2018-09-18T22:46:50.001Z,17.40
2018-09-18T22:49:21.761Z,17.30
2018-09-18T22:51:52.983Z,17.30
2018-09-18T22:54:24.844Z,17.20
2018-09-18T22:59:30.163Z,17.10
2018-09-18T23:02:03.358Z,17.10
2018-09-18T23:04:33.758Z,17.10
2018-09-18T23:07:04.778Z,17.10
2018-09-18T23:09:36.262Z,17.10
2018-09-18T23:12:06.820Z,17.00
2018-09-18T23:14:37.258Z,17.00
2018-09-18T23:17:07.838Z,16.90
2018-09-18T23:19:38.498Z,16.80
2018-09-18T23:22:15.518Z,16.80
2018-09-18T23:24:46.908Z,16.70
2018-09-18T23:27:17.238Z,16.80
2018-09-18T23:29:48.502Z,16.80
2018-09-18T23:32:19.802Z,16.70
2018-09-18T23:34:52.118Z,16.70
2018-09-18T23:37:23.978Z,16.70
2018-09-18T23:39:56.738Z,16.70
2018-09-18T23:42:27.678Z,16.70
2018-09-18T23:45:00.558Z,16.60
2018-09-18T23:47:31.225Z,16.40
2018-09-18T23:50:02.079Z,16.40
2018-09-18T23:52:33.738Z,16.40
2018-09-18T23:55:04.360Z,16.30
2018-09-18T23:57:34.899Z,16.20
